Inwood, Indiana
Current Conditions -  °F | °C
As of 8:35 PM on Tuesday 25 Nov 2014 (Local Time) from KOXI Reporting Station
Overcast Overcast  
Wind Chill: -8°   Ceiling: 1600
Heat Index: -4°   Visibility: 10mi
Dew Point: -7°   Wind: 6mph
Humidity: 79%   Direction: 200°SSW
Pressure: 30.2"   Gusts: NA
Location:  41.3572°N, 86.3281°W
Report Text: KOXI 260135Z AUTO 20005KT 10SM OVC016 M04/M07 A3020 RMK AO1 T10421074
Loading
Personal Weather Stations






























Interactive Weather Map New forecast layout! Learn more

10-Day Weather Forecast

Advertisements
Track Severe Weather on mobile